sensor_id;sensor_type;location;lat;lon;timestamp;P1;durP1;ratioP1;P2;durP2;ratioP2
23884;SDS011;12123;53.088;7.392;2022-12-11T00:01:37;135.23;;;33.65;;
23884;SDS011;12123;53.088;7.392;2022-12-11T00:04:05;127.10;;;33.10;;
23884;SDS011;12123;53.088;7.392;2022-12-11T00:06:32;134.35;;;32.45;;
23884;SDS011;12123;53.088;7.392;2022-12-11T00:08:59;121.50;;;33.35;;
23884;SDS011;12123;53.088;7.392;2022-12-11T00:11:26;138.82;;;32.85;;
23884;SDS011;12123;53.088;7.392;2022-12-11T00:13:53;121.95;;;32.03;;
23884;SDS011;12123;53.088;7.392;2022-12-11T00:16:21;105.85;;;28.15;;
23884;SDS011;12123;53.088;7.392;2022-12-11T00:18:52;114.53;;;29.48;;
23884;SDS011;12123;53.088;7.392;2022-12-11T00:21:19;112.63;;;29.90;;
23884;SDS011;12123;53.088;7.392;2022-12-11T00:23:47;108.43;;;28.90;;
23884;SDS011;12123;53.088;7.392;2022-12-11T00:26:14;103.28;;;28.25;;
23884;SDS011;12123;53.088;7.392;2022-12-11T00:28:42;120.07;;;28.95;;
23884;SDS011;12123;53.088;7.392;2022-12-11T00:31:14;122.43;;;31.42;;
23884;SDS011;12123;53.088;7.392;2022-12-11T00:33:42;110.10;;;29.90;;
23884;SDS011;12123;53.088;7.392;2022-12-11T00:36:10;101.30;;;26.98;;
23884;SDS011;12123;53.088;7.392;2022-12-11T00:38:38;109.45;;;27.02;;
23884;SDS011;12123;53.088;7.392;2022-12-11T00:41:05;99.60;;;25.92;;
23884;SDS011;12123;53.088;7.392;2022-12-11T00:43:32;104.88;;;26.98;;
23884;SDS011;12123;53.088;7.392;2022-12-11T00:45:59;102.82;;;27.27;;
23884;SDS011;12123;53.088;7.392;2022-12-11T00:48:27;90.85;;;26.15;;
23884;SDS011;12123;53.088;7.392;2022-12-11T00:50:54;108.45;;;26.77;;
23884;SDS011;12123;53.088;7.392;2022-12-11T00:53:21;89.07;;;25.42;;
23884;SDS011;12123;53.088;7.392;2022-12-11T00:55:48;102.55;;;26.80;;
23884;SDS011;12123;53.088;7.392;2022-12-11T00:58:15;114.80;;;30.25;;
23884;SDS011;12123;53.088;7.392;2022-12-11T01:00:42;129.32;;;28.00;;
23884;SDS011;12123;53.088;7.392;2022-12-11T01:03:11;121.78;;;29.73;;
23884;SDS011;12123;53.088;7.392;2022-12-11T01:05:39;110.47;;;26.83;;
23884;SDS011;12123;53.088;7.392;2022-12-11T01:08:06;113.18;;;27.92;;
23884;SDS011;12123;53.088;7.392;2022-12-11T01:10:33;115.65;;;28.80;;
23884;SDS011;12123;53.088;7.392;2022-12-11T01:13:05;115.32;;;29.17;;
23884;SDS011;12123;53.088;7.392;2022-12-11T01:15:33;119.50;;;30.70;;
23884;SDS011;12123;53.088;7.392;2022-12-11T01:18:06;120.23;;;31.27;;
23884;SDS011;12123;53.088;7.392;2022-12-11T01:20:33;113.00;;;28.20;;
23884;SDS011;12123;53.088;7.392;2022-12-11T01:23:00;95.75;;;24.73;;
23884;SDS011;12123;53.088;7.392;2022-12-11T01:25:28;102.97;;;26.00;;
23884;SDS011;12123;53.088;7.392;2022-12-11T01:27:55;100.95;;;28.13;;
23884;SDS011;12123;53.088;7.392;2022-12-11T01:30:23;101.43;;;27.02;;
23884;SDS011;12123;53.088;7.392;2022-12-11T01:32:51;95.93;;;26.30;;
23884;SDS011;12123;53.088;7.392;2022-12-11T01:35:18;89.00;;;24.13;;
23884;SDS011;12123;53.088;7.392;2022-12-11T01:37:45;87.93;;;25.83;;
23884;SDS011;12123;53.088;7.392;2022-12-11T01:40:13;104.00;;;26.67;;
23884;SDS011;12123;53.088;7.392;2022-12-11T01:42:41;104.45;;;27.25;;
23884;SDS011;12123;53.088;7.392;2022-12-11T01:48:05;91.07;;;26.23;;
23884;SDS011;12123;53.088;7.392;2022-12-11T01:50:35;100.32;;;25.50;;
23884;SDS011;12123;53.088;7.392;2022-12-11T01:53:03;94.65;;;24.30;;
23884;SDS011;12123;53.088;7.392;2022-12-11T01:55:31;99.07;;;25.85;;
23884;SDS011;12123;53.088;7.392;2022-12-11T01:57:59;87.45;;;25.55;;
23884;SDS011;12123;53.088;7.392;2022-12-11T02:00:26;90.82;;;25.02;;
23884;SDS011;12123;53.088;7.392;2022-12-11T02:02:53;92.60;;;25.83;;
23884;SDS011;12123;53.088;7.392;2022-12-11T02:05:20;87.28;;;25.35;;
23884;SDS011;12123;53.088;7.392;2022-12-11T02:07:55;80.20;;;24.65;;
23884;SDS011;12123;53.088;7.392;2022-12-11T02:10:25;77.70;;;23.25;;
23884;SDS011;12123;53.088;7.392;2022-12-11T02:12:58;85.38;;;24.75;;
23884;SDS011;12123;53.088;7.392;2022-12-11T02:18:10;92.10;;;24.70;;
23884;SDS011;12123;53.088;7.392;2022-12-11T02:31:03;95.75;;;25.77;;
23884;SDS011;12123;53.088;7.392;2022-12-11T02:33:33;85.30;;;25.45;;
23884;SDS011;12123;53.088;7.392;2022-12-11T02:36:02;95.25;;;25.73;;
23884;SDS011;12123;53.088;7.392;2022-12-11T02:38:31;97.00;;;26.92;;
23884;SDS011;12123;53.088;7.392;2022-12-11T02:41:00;82.18;;;25.60;;
23884;SDS011;12123;53.088;7.392;2022-12-11T02:43:28;93.32;;;26.77;;
23884;SDS011;12123;53.088;7.392;2022-12-11T02:45:56;83.03;;;23.10;;
23884;SDS011;12123;53.088;7.392;2022-12-11T02:48:25;93.95;;;26.30;;
23884;SDS011;12123;53.088;7.392;2022-12-11T02:50:52;90.10;;;27.65;;
23884;SDS011;12123;53.088;7.392;2022-12-11T02:53:22;97.53;;;26.77;;
23884;SDS011;12123;53.088;7.392;2022-12-11T02:55:51;104.57;;;27.17;;
23884;SDS011;12123;53.088;7.392;2022-12-11T02:58:21;89.95;;;24.35;;
23884;SDS011;12123;53.088;7.392;2022-12-11T03:00:49;82.90;;;23.63;;
23884;SDS011;12123;53.088;7.392;2022-12-11T03:03:16;79.65;;;22.15;;
23884;SDS011;12123;53.088;7.392;2022-12-11T03:05:43;71.60;;;22.02;;
23884;SDS011;12123;53.088;7.392;2022-12-11T03:08:11;70.85;;;20.00;;
23884;SDS011;12123;53.088;7.392;2022-12-11T03:10:43;71.28;;;19.08;;
23884;SDS011;12123;53.088;7.392;2022-12-11T03:13:11;80.35;;;20.60;;
23884;SDS011;12123;53.088;7.392;2022-12-11T03:18:14;68.75;;;20.80;;
23884;SDS011;12123;53.088;7.392;2022-12-11T03:20:45;64.43;;;20.65;;
23884;SDS011;12123;53.088;7.392;2022-12-11T03:23:21;80.28;;;20.92;;
23884;SDS011;12123;53.088;7.392;2022-12-11T03:25:52;65.13;;;20.67;;
23884;SDS011;12123;53.088;7.392;2022-12-11T03:28:31;76.30;;;21.98;;
23884;SDS011;12123;53.088;7.392;2022-12-11T03:31:04;70.13;;;20.38;;
23884;SDS011;12123;53.088;7.392;2022-12-11T03:33:35;65.03;;;20.50;;
23884;SDS011;12123;53.088;7.392;2022-12-11T03:36:07;77.30;;;21.52;;
23884;SDS011;12123;53.088;7.392;2022-12-11T03:38:39;78.45;;;22.83;;
23884;SDS011;12123;53.088;7.392;2022-12-11T03:41:07;73.07;;;21.05;;
23884;SDS011;12123;53.088;7.392;2022-12-11T03:43:36;70.93;;;21.42;;
23884;SDS011;12123;53.088;7.392;2022-12-11T03:46:04;77.28;;;21.88;;
23884;SDS011;12123;53.088;7.392;2022-12-11T03:48:32;76.18;;;25.13;;
23884;SDS011;12123;53.088;7.392;2022-12-11T03:51:00;68.70;;;22.90;;
23884;SDS011;12123;53.088;7.392;2022-12-11T03:53:28;82.07;;;23.88;;
23884;SDS011;12123;53.088;7.392;2022-12-11T03:55:55;73.82;;;22.63;;
23884;SDS011;12123;53.088;7.392;2022-12-11T03:58:23;77.18;;;22.90;;
23884;SDS011;12123;53.088;7.392;2022-12-11T04:00:50;68.82;;;21.60;;
23884;SDS011;12123;53.088;7.392;2022-12-11T04:03:17;66.18;;;22.70;;
23884;SDS011;12123;53.088;7.392;2022-12-11T04:05:49;78.72;;;20.77;;
23884;SDS011;12123;53.088;7.392;2022-12-11T04:08:16;80.20;;;21.80;;
23884;SDS011;12123;53.088;7.392;2022-12-11T04:10:46;77.22;;;22.35;;
23884;SDS011;12123;53.088;7.392;2022-12-11T04:13:13;76.30;;;21.85;;
23884;SDS011;12123;53.088;7.392;2022-12-11T04:15:40;81.80;;;21.40;;
23884;SDS011;12123;53.088;7.392;2022-12-11T04:18:08;66.57;;;21.00;;
23884;SDS011;12123;53.088;7.392;2022-12-11T04:20:54;74.32;;;22.38;;
23884;SDS011;12123;53.088;7.392;2022-12-11T04:23:40;74.85;;;19.90;;
23884;SDS011;12123;53.088;7.392;2022-12-11T04:26:27;71.88;;;22.48;;
23884;SDS011;12123;53.088;7.392;2022-12-11T04:28:54;79.78;;;22.50;;
23884;SDS011;12123;53.088;7.392;2022-12-11T04:31:21;87.68;;;23.63;;
23884;SDS011;12123;53.088;7.392;2022-12-11T04:33:48;80.88;;;23.77;;
23884;SDS011;12123;53.088;7.392;2022-12-11T04:36:16;85.00;;;23.33;;
23884;SDS011;12123;53.088;7.392;2022-12-11T04:38:43;74.40;;;23.08;;
23884;SDS011;12123;53.088;7.392;2022-12-11T04:41:11;84.05;;;25.38;;
23884;SDS011;12123;53.088;7.392;2022-12-11T04:43:38;76.57;;;23.08;;
23884;SDS011;12123;53.088;7.392;2022-12-11T04:46:07;77.85;;;23.15;;
23884;SDS011;12123;53.088;7.392;2022-12-11T04:48:35;75.95;;;23.83;;
23884;SDS011;12123;53.088;7.392;2022-12-11T04:51:02;83.80;;;23.70;;
23884;SDS011;12123;53.088;7.392;2022-12-11T04:53:30;74.72;;;21.73;;
23884;SDS011;12123;53.088;7.392;2022-12-11T04:55:57;71.88;;;22.42;;
23884;SDS011;12123;53.088;7.392;2022-12-11T04:58:24;67.85;;;21.98;;
23884;SDS011;12123;53.088;7.392;2022-12-11T05:00:52;78.72;;;22.92;;
23884;SDS011;12123;53.088;7.392;2022-12-11T05:03:19;77.95;;;23.58;;
23884;SDS011;12123;53.088;7.392;2022-12-11T05:05:50;78.72;;;23.25;;
23884;SDS011;12123;53.088;7.392;2022-12-11T05:08:18;75.95;;;21.75;;
23884;SDS011;12123;53.088;7.392;2022-12-11T05:10:56;85.35;;;23.38;;
23884;SDS011;12123;53.088;7.392;2022-12-11T05:13:23;64.75;;;20.95;;
23884;SDS011;12123;53.088;7.392;2022-12-11T05:15:50;73.68;;;21.27;;
23884;SDS011;12123;53.088;7.392;2022-12-11T05:18:17;70.78;;;21.02;;
23884;SDS011;12123;53.088;7.392;2022-12-11T05:20:53;70.68;;;22.08;;
23884;SDS011;12123;53.088;7.392;2022-12-11T05:23:20;78.43;;;21.30;;
23884;SDS011;12123;53.088;7.392;2022-12-11T05:25:57;83.00;;;23.35;;
23884;SDS011;12123;53.088;7.392;2022-12-11T05:28:25;76.15;;;23.02;;
23884;SDS011;12123;53.088;7.392;2022-12-11T05:30:54;78.95;;;22.45;;
23884;SDS011;12123;53.088;7.392;2022-12-11T05:33:22;72.60;;;21.88;;
23884;SDS011;12123;53.088;7.392;2022-12-11T05:35:49;81.03;;;22.88;;
23884;SDS011;12123;53.088;7.392;2022-12-11T05:38:16;71.47;;;22.30;;
23884;SDS011;12123;53.088;7.392;2022-12-11T05:40:43;71.88;;;20.92;;
23884;SDS011;12123;53.088;7.392;2022-12-11T05:43:10;71.07;;;22.40;;
23884;SDS011;12123;53.088;7.392;2022-12-11T05:45:38;66.00;;;21.73;;
23884;SDS011;12123;53.088;7.392;2022-12-11T05:48:05;61.15;;;19.17;;
23884;SDS011;12123;53.088;7.392;2022-12-11T05:50:32;70.15;;;22.23;;
23884;SDS011;12123;53.088;7.392;2022-12-11T05:52:59;67.68;;;21.60;;
23884;SDS011;12123;53.088;7.392;2022-12-11T05:55:27;78.03;;;20.27;;
23884;SDS011;12123;53.088;7.392;2022-12-11T05:57:54;66.78;;;20.50;;
23884;SDS011;12123;53.088;7.392;2022-12-11T06:00:21;75.93;;;21.10;;
23884;SDS011;12123;53.088;7.392;2022-12-11T06:02:48;63.42;;;21.30;;
23884;SDS011;12123;53.088;7.392;2022-12-11T06:05:16;64.65;;;20.90;;
23884;SDS011;12123;53.088;7.392;2022-12-11T06:07:43;66.88;;;18.90;;
23884;SDS011;12123;53.088;7.392;2022-12-11T06:10:10;65.50;;;19.83;;
23884;SDS011;12123;53.088;7.392;2022-12-11T06:12:38;56.10;;;18.60;;
23884;SDS011;12123;53.088;7.392;2022-12-11T06:15:06;55.30;;;17.52;;
23884;SDS011;12123;53.088;7.392;2022-12-11T06:17:33;62.80;;;20.20;;
23884;SDS011;12123;53.088;7.392;2022-12-11T06:20:00;58.50;;;20.13;;
23884;SDS011;12123;53.088;7.392;2022-12-11T06:22:28;63.13;;;20.27;;
23884;SDS011;12123;53.088;7.392;2022-12-11T06:24:55;66.88;;;19.38;;
23884;SDS011;12123;53.088;7.392;2022-12-11T06:27:22;69.75;;;20.50;;
23884;SDS011;12123;53.088;7.392;2022-12-11T06:29:49;67.60;;;20.17;;
23884;SDS011;12123;53.088;7.392;2022-12-11T06:32:16;63.40;;;20.50;;
23884;SDS011;12123;53.088;7.392;2022-12-11T06:34:43;62.25;;;19.85;;
23884;SDS011;12123;53.088;7.392;2022-12-11T06:37:11;63.75;;;18.73;;
23884;SDS011;12123;53.088;7.392;2022-12-11T06:39:38;62.72;;;19.08;;
23884;SDS011;12123;53.088;7.392;2022-12-11T06:42:05;63.85;;;19.63;;
23884;SDS011;12123;53.088;7.392;2022-12-11T06:44:32;66.10;;;19.38;;
23884;SDS011;12123;53.088;7.392;2022-12-11T06:46:59;70.78;;;22.23;;
23884;SDS011;12123;53.088;7.392;2022-12-11T06:49:26;70.88;;;20.73;;
23884;SDS011;12123;53.088;7.392;2022-12-11T06:51:53;66.22;;;22.05;;
23884;SDS011;12123;53.088;7.392;2022-12-11T06:54:24;63.80;;;19.98;;
23884;SDS011;12123;53.088;7.392;2022-12-11T06:56:52;66.68;;;20.35;;
23884;SDS011;12123;53.088;7.392;2022-12-11T06:59:19;58.22;;;19.30;;
23884;SDS011;12123;53.088;7.392;2022-12-11T07:01:46;72.18;;;20.17;;
23884;SDS011;12123;53.088;7.392;2022-12-11T07:04:13;66.78;;;20.27;;
23884;SDS011;12123;53.088;7.392;2022-12-11T07:06:41;70.82;;;22.88;;
23884;SDS011;12123;53.088;7.392;2022-12-11T07:09:08;72.88;;;20.55;;
23884;SDS011;12123;53.088;7.392;2022-12-11T07:11:35;65.72;;;20.23;;
23884;SDS011;12123;53.088;7.392;2022-12-11T07:14:02;58.55;;;19.33;;
23884;SDS011;12123;53.088;7.392;2022-12-11T07:16:29;64.70;;;18.73;;
23884;SDS011;12123;53.088;7.392;2022-12-11T07:18:57;68.65;;;21.08;;
23884;SDS011;12123;53.088;7.392;2022-12-11T07:21:24;66.68;;;20.25;;
23884;SDS011;12123;53.088;7.392;2022-12-11T07:23:51;68.72;;;19.60;;
23884;SDS011;12123;53.088;7.392;2022-12-11T07:26:19;69.55;;;21.70;;
23884;SDS011;12123;53.088;7.392;2022-12-11T07:28:47;73.18;;;19.25;;
23884;SDS011;12123;53.088;7.392;2022-12-11T07:31:19;64.03;;;20.40;;
23884;SDS011;12123;53.088;7.392;2022-12-11T07:33:51;62.25;;;19.00;;
23884;SDS011;12123;53.088;7.392;2022-12-11T07:36:18;66.00;;;20.48;;
23884;SDS011;12123;53.088;7.392;2022-12-11T07:38:45;67.97;;;21.35;;
23884;SDS011;12123;53.088;7.392;2022-12-11T07:41:13;79.00;;;20.73;;
23884;SDS011;12123;53.088;7.392;2022-12-11T07:43:41;64.65;;;20.25;;
23884;SDS011;12123;53.088;7.392;2022-12-11T07:46:19;75.07;;;21.50;;
23884;SDS011;12123;53.088;7.392;2022-12-11T07:48:47;59.33;;;19.85;;
23884;SDS011;12123;53.088;7.392;2022-12-11T07:53:44;69.22;;;19.70;;
23884;SDS011;12123;53.088;7.392;2022-12-11T07:56:12;64.90;;;20.08;;
23884;SDS011;12123;53.088;7.392;2022-12-11T07:58:40;67.47;;;20.52;;
23884;SDS011;12123;53.088;7.392;2022-12-11T08:01:12;68.93;;;21.52;;
23884;SDS011;12123;53.088;7.392;2022-12-11T08:03:40;72.75;;;20.77;;
23884;SDS011;12123;53.088;7.392;2022-12-11T08:06:07;75.30;;;21.30;;
23884;SDS011;12123;53.088;7.392;2022-12-11T08:08:35;67.40;;;22.77;;
23884;SDS011;12123;53.088;7.392;2022-12-11T08:11:03;88.75;;;28.73;;
23884;SDS011;12123;53.088;7.392;2022-12-11T08:13:30;76.38;;;25.40;;
23884;SDS011;12123;53.088;7.392;2022-12-11T08:15:57;74.50;;;22.80;;
23884;SDS011;12123;53.088;7.392;2022-12-11T08:18:25;78.45;;;22.38;;
23884;SDS011;12123;53.088;7.392;2022-12-11T08:20:52;63.30;;;22.17;;
23884;SDS011;12123;53.088;7.392;2022-12-11T08:23:19;74.18;;;22.30;;
23884;SDS011;12123;53.088;7.392;2022-12-11T08:25:46;67.75;;;21.15;;
23884;SDS011;12123;53.088;7.392;2022-12-11T08:28:13;67.90;;;22.00;;
23884;SDS011;12123;53.088;7.392;2022-12-11T08:30:40;63.55;;;21.90;;
23884;SDS011;12123;53.088;7.392;2022-12-11T08:33:08;63.38;;;20.25;;
23884;SDS011;12123;53.088;7.392;2022-12-11T08:35:37;76.03;;;23.15;;
23884;SDS011;12123;53.088;7.392;2022-12-11T08:38:04;67.25;;;21.98;;
23884;SDS011;12123;53.088;7.392;2022-12-11T08:40:32;73.75;;;22.15;;
23884;SDS011;12123;53.088;7.392;2022-12-11T08:42:59;74.32;;;22.08;;
23884;SDS011;12123;53.088;7.392;2022-12-11T08:45:26;68.70;;;20.75;;
23884;SDS011;12123;53.088;7.392;2022-12-11T08:47:53;73.72;;;22.83;;
23884;SDS011;12123;53.088;7.392;2022-12-11T08:50:20;66.13;;;20.58;;
23884;SDS011;12123;53.088;7.392;2022-12-11T08:52:48;62.92;;;20.95;;
23884;SDS011;12123;53.088;7.392;2022-12-11T08:55:15;64.28;;;21.35;;
23884;SDS011;12123;53.088;7.392;2022-12-11T08:57:42;63.15;;;20.13;;
23884;SDS011;12123;53.088;7.392;2022-12-11T09:00:10;61.63;;;19.42;;
23884;SDS011;12123;53.088;7.392;2022-12-11T09:02:37;63.88;;;19.25;;
23884;SDS011;12123;53.088;7.392;2022-12-11T09:05:05;63.60;;;20.30;;
23884;SDS011;12123;53.088;7.392;2022-12-11T09:07:33;77.05;;;22.65;;
23884;SDS011;12123;53.088;7.392;2022-12-11T09:10:01;68.32;;;20.77;;
23884;SDS011;12123;53.088;7.392;2022-12-11T09:12:28;73.43;;;21.73;;
23884;SDS011;12123;53.088;7.392;2022-12-11T09:14:56;67.63;;;21.13;;
23884;SDS011;12123;53.088;7.392;2022-12-11T09:17:23;76.00;;;21.70;;
23884;SDS011;12123;53.088;7.392;2022-12-11T09:19:50;64.88;;;20.60;;
23884;SDS011;12123;53.088;7.392;2022-12-11T09:22:17;66.47;;;20.13;;
23884;SDS011;12123;53.088;7.392;2022-12-11T09:24:45;51.65;;;17.55;;
23884;SDS011;12123;53.088;7.392;2022-12-11T09:27:12;71.00;;;22.17;;
23884;SDS011;12123;53.088;7.392;2022-12-11T09:29:39;61.25;;;18.27;;
23884;SDS011;12123;53.088;7.392;2022-12-11T09:32:06;62.65;;;21.10;;
23884;SDS011;12123;53.088;7.392;2022-12-11T09:34:34;67.28;;;21.02;;
23884;SDS011;12123;53.088;7.392;2022-12-11T09:37:01;72.18;;;20.63;;
23884;SDS011;12123;53.088;7.392;2022-12-11T09:39:28;65.05;;;20.42;;
23884;SDS011;12123;53.088;7.392;2022-12-11T09:44:33;66.65;;;20.95;;
23884;SDS011;12123;53.088;7.392;2022-12-11T09:47:01;60.20;;;20.23;;
23884;SDS011;12123;53.088;7.392;2022-12-11T09:49:38;65.57;;;21.48;;
23884;SDS011;12123;53.088;7.392;2022-12-11T09:52:42;72.38;;;21.15;;
23884;SDS011;12123;53.088;7.392;2022-12-11T09:55:02;55.70;;;18.63;;
23884;SDS011;12123;53.088;7.392;2022-12-11T09:57:42;60.42;;;18.95;;
23884;SDS011;12123;53.088;7.392;2022-12-11T10:02:52;65.50;;;20.20;;
23884;SDS011;12123;53.088;7.392;2022-12-11T10:08:18;61.72;;;19.70;;
23884;SDS011;12123;53.088;7.392;2022-12-11T10:18:34;59.72;;;19.60;;
23884;SDS011;12123;53.088;7.392;2022-12-11T10:21:02;59.03;;;21.02;;
23884;SDS011;12123;53.088;7.392;2022-12-11T10:23:31;53.80;;;18.08;;
23884;SDS011;12123;53.088;7.392;2022-12-11T10:26:09;56.92;;;18.38;;
23884;SDS011;12123;53.088;7.392;2022-12-11T10:28:37;58.88;;;18.77;;
23884;SDS011;12123;53.088;7.392;2022-12-11T10:31:17;54.13;;;19.38;;
23884;SDS011;12123;53.088;7.392;2022-12-11T10:33:52;72.13;;;20.27;;
23884;SDS011;12123;53.088;7.392;2022-12-11T10:36:29;58.28;;;19.17;;
23884;SDS011;12123;53.088;7.392;2022-12-11T10:38:56;59.72;;;18.85;;
23884;SDS011;12123;53.088;7.392;2022-12-11T10:41:31;60.70;;;19.88;;
23884;SDS011;12123;53.088;7.392;2022-12-11T10:43:59;55.00;;;18.67;;
23884;SDS011;12123;53.088;7.392;2022-12-11T10:46:27;55.42;;;19.83;;
23884;SDS011;12123;53.088;7.392;2022-12-11T10:48:59;56.03;;;18.38;;
23884;SDS011;12123;53.088;7.392;2022-12-11T10:53:57;48.40;;;18.65;;
23884;SDS011;12123;53.088;7.392;2022-12-11T10:56:32;52.75;;;18.25;;
23884;SDS011;12123;53.088;7.392;2022-12-11T10:59:00;46.38;;;17.83;;
23884;SDS011;12123;53.088;7.392;2022-12-11T11:01:28;53.60;;;19.20;;
23884;SDS011;12123;53.088;7.392;2022-12-11T11:04:06;53.03;;;19.08;;
23884;SDS011;12123;53.088;7.392;2022-12-11T11:06:40;53.63;;;18.20;;
23884;SDS011;12123;53.088;7.392;2022-12-11T11:09:26;59.17;;;20.27;;
23884;SDS011;12123;53.088;7.392;2022-12-11T11:11:53;50.42;;;17.60;;
23884;SDS011;12123;53.088;7.392;2022-12-11T11:14:21;56.13;;;18.52;;
23884;SDS011;12123;53.088;7.392;2022-12-11T11:16:48;58.25;;;20.33;;
23884;SDS011;12123;53.088;7.392;2022-12-11T11:19:30;52.78;;;18.60;;
23884;SDS011;12123;53.088;7.392;2022-12-11T11:21:58;54.58;;;18.45;;
23884;SDS011;12123;53.088;7.392;2022-12-11T11:26:56;59.47;;;21.23;;
23884;SDS011;12123;53.088;7.392;2022-12-11T11:29:38;56.10;;;18.75;;
23884;SDS011;12123;53.088;7.392;2022-12-11T11:32:14;56.28;;;21.63;;
23884;SDS011;12123;53.088;7.392;2022-12-11T11:34:41;59.78;;;19.27;;
23884;SDS011;12123;53.088;7.392;2022-12-11T11:37:22;62.50;;;21.00;;
23884;SDS011;12123;53.088;7.392;2022-12-11T11:39:50;63.58;;;18.63;;
23884;SDS011;12123;53.088;7.392;2022-12-11T11:42:28;65.00;;;20.52;;
23884;SDS011;12123;53.088;7.392;2022-12-11T11:45:04;72.72;;;20.55;;
23884;SDS011;12123;53.088;7.392;2022-12-11T11:47:37;64.82;;;20.30;;
23884;SDS011;12123;53.088;7.392;2022-12-11T11:52:36;58.15;;;19.92;;
23884;SDS011;12123;53.088;7.392;2022-12-11T12:00:19;66.22;;;20.77;;
23884;SDS011;12123;53.088;7.392;2022-12-11T12:02:47;51.83;;;16.98;;
23884;SDS011;12123;53.088;7.392;2022-12-11T12:05:16;59.10;;;20.15;;
23884;SDS011;12123;53.088;7.392;2022-12-11T12:12:52;61.80;;;19.25;;
23884;SDS011;12123;53.088;7.392;2022-12-11T12:30:35;68.82;;;19.65;;
23884;SDS011;12123;53.088;7.392;2022-12-11T12:35:53;59.58;;;20.15;;
23884;SDS011;12123;53.088;7.392;2022-12-11T12:49:02;58.25;;;19.75;;
23884;SDS011;12123;53.088;7.392;2022-12-11T12:51:30;59.55;;;19.15;;
23884;SDS011;12123;53.088;7.392;2022-12-11T12:53:58;59.90;;;20.20;;
23884;SDS011;12123;53.088;7.392;2022-12-11T12:56:26;58.83;;;19.17;;
23884;SDS011;12123;53.088;7.392;2022-12-11T12:58:55;55.25;;;19.65;;
23884;SDS011;12123;53.088;7.392;2022-12-11T13:01:28;67.40;;;21.02;;
23884;SDS011;12123;53.088;7.392;2022-12-11T13:03:57;70.57;;;20.30;;
23884;SDS011;12123;53.088;7.392;2022-12-11T13:09:24;59.22;;;19.00;;
23884;SDS011;12123;53.088;7.392;2022-12-11T13:11:52;62.67;;;19.42;;
23884;SDS011;12123;53.088;7.392;2022-12-11T13:14:25;63.58;;;19.65;;
23884;SDS011;12123;53.088;7.392;2022-12-11T13:17:04;64.20;;;19.40;;
23884;SDS011;12123;53.088;7.392;2022-12-11T13:19:32;63.83;;;20.45;;
23884;SDS011;12123;53.088;7.392;2022-12-11T13:25:00;76.97;;;24.10;;
23884;SDS011;12123;53.088;7.392;2022-12-11T13:27:36;66.45;;;21.63;;
23884;SDS011;12123;53.088;7.392;2022-12-11T13:32:48;68.03;;;23.33;;
23884;SDS011;12123;53.088;7.392;2022-12-11T13:35:16;65.53;;;21.73;;
23884;SDS011;12123;53.088;7.392;2022-12-11T13:37:44;72.15;;;23.33;;
23884;SDS011;12123;53.088;7.392;2022-12-11T13:40:18;76.65;;;21.65;;
23884;SDS011;12123;53.088;7.392;2022-12-11T13:43:06;77.25;;;22.85;;
23884;SDS011;12123;53.088;7.392;2022-12-11T13:45:53;70.72;;;22.17;;
23884;SDS011;12123;53.088;7.392;2022-12-11T13:48:23;65.43;;;21.48;;
23884;SDS011;12123;53.088;7.392;2022-12-11T13:50:51;77.05;;;22.05;;
23884;SDS011;12123;53.088;7.392;2022-12-11T13:53:19;68.25;;;21.52;;
23884;SDS011;12123;53.088;7.392;2022-12-11T13:58:24;66.25;;;21.75;;
23884;SDS011;12123;53.088;7.392;2022-12-11T14:00:52;66.55;;;21.83;;
23884;SDS011;12123;53.088;7.392;2022-12-11T14:03:20;72.78;;;22.73;;
23884;SDS011;12123;53.088;7.392;2022-12-11T14:05:47;74.10;;;22.63;;
23884;SDS011;12123;53.088;7.392;2022-12-11T14:08:19;73.88;;;22.52;;
23884;SDS011;12123;53.088;7.392;2022-12-11T14:10:53;79.88;;;23.60;;
23884;SDS011;12123;53.088;7.392;2022-12-11T14:13:22;73.15;;;24.63;;
23884;SDS011;12123;53.088;7.392;2022-12-11T14:15:51;70.38;;;22.88;;
23884;SDS011;12123;53.088;7.392;2022-12-11T14:18:22;68.75;;;23.27;;
23884;SDS011;12123;53.088;7.392;2022-12-11T14:20:59;70.95;;;22.40;;
23884;SDS011;12123;53.088;7.392;2022-12-11T14:23:28;73.18;;;22.60;;
23884;SDS011;12123;53.088;7.392;2022-12-11T14:25:56;71.85;;;22.20;;
23884;SDS011;12123;53.088;7.392;2022-12-11T14:28:25;70.95;;;22.90;;
23884;SDS011;12123;53.088;7.392;2022-12-11T14:30:56;71.95;;;23.95;;
23884;SDS011;12123;53.088;7.392;2022-12-11T14:33:26;74.75;;;23.98;;
23884;SDS011;12123;53.088;7.392;2022-12-11T14:35:54;78.50;;;22.77;;
23884;SDS011;12123;53.088;7.392;2022-12-11T14:38:23;71.97;;;23.58;;
23884;SDS011;12123;53.088;7.392;2022-12-11T14:40:53;66.95;;;23.80;;
23884;SDS011;12123;53.088;7.392;2022-12-11T14:43:26;69.63;;;22.38;;
23884;SDS011;12123;53.088;7.392;2022-12-11T14:45:55;59.72;;;21.70;;
23884;SDS011;12123;53.088;7.392;2022-12-11T14:48:27;63.13;;;20.90;;
23884;SDS011;12123;53.088;7.392;2022-12-11T14:50:57;60.47;;;20.95;;
23884;SDS011;12123;53.088;7.392;2022-12-11T14:53:26;56.20;;;19.70;;
23884;SDS011;12123;53.088;7.392;2022-12-11T14:55:54;65.80;;;19.75;;
23884;SDS011;12123;53.088;7.392;2022-12-11T14:58:24;57.75;;;20.63;;
23884;SDS011;12123;53.088;7.392;2022-12-11T15:01:03;65.30;;;20.17;;
23884;SDS011;12123;53.088;7.392;2022-12-11T15:03:31;61.65;;;20.85;;
23884;SDS011;12123;53.088;7.392;2022-12-11T15:05:59;62.95;;;19.00;;
23884;SDS011;12123;53.088;7.392;2022-12-11T15:08:31;58.15;;;20.33;;
23884;SDS011;12123;53.088;7.392;2022-12-11T15:11:06;60.10;;;19.75;;
23884;SDS011;12123;53.088;7.392;2022-12-11T15:13:35;61.80;;;20.35;;
23884;SDS011;12123;53.088;7.392;2022-12-11T15:16:03;61.30;;;20.67;;
23884;SDS011;12123;53.088;7.392;2022-12-11T15:18:32;76.05;;;20.83;;
23884;SDS011;12123;53.088;7.392;2022-12-11T15:21:01;60.35;;;20.35;;
23884;SDS011;12123;53.088;7.392;2022-12-11T15:23:29;60.47;;;19.85;;
23884;SDS011;12123;53.088;7.392;2022-12-11T15:25:57;66.68;;;20.98;;
23884;SDS011;12123;53.088;7.392;2022-12-11T15:28:26;64.32;;;20.92;;
23884;SDS011;12123;53.088;7.392;2022-12-11T15:30:56;61.72;;;22.65;;
23884;SDS011;12123;53.088;7.392;2022-12-11T15:33:24;58.65;;;19.00;;
23884;SDS011;12123;53.088;7.392;2022-12-11T15:38:27;73.18;;;19.83;;
23884;SDS011;12123;53.088;7.392;2022-12-11T15:40:55;70.40;;;21.42;;
23884;SDS011;12123;53.088;7.392;2022-12-11T15:43:22;67.32;;;21.20;;
23884;SDS011;12123;53.088;7.392;2022-12-11T15:45:50;64.53;;;18.50;;
23884;SDS011;12123;53.088;7.392;2022-12-11T15:48:17;63.88;;;20.50;;
23884;SDS011;12123;53.088;7.392;2022-12-11T15:50:44;66.97;;;21.50;;
23884;SDS011;12123;53.088;7.392;2022-12-11T15:53:12;66.93;;;23.20;;
23884;SDS011;12123;53.088;7.392;2022-12-11T15:55:39;70.55;;;22.52;;
23884;SDS011;12123;53.088;7.392;2022-12-11T15:58:07;66.05;;;21.13;;
23884;SDS011;12123;53.088;7.392;2022-12-11T16:00:34;60.75;;;20.25;;
23884;SDS011;12123;53.088;7.392;2022-12-11T16:03:02;76.32;;;22.65;;
23884;SDS011;12123;53.088;7.392;2022-12-11T16:05:29;64.38;;;20.83;;
23884;SDS011;12123;53.088;7.392;2022-12-11T16:07:56;66.78;;;20.45;;
23884;SDS011;12123;53.088;7.392;2022-12-11T16:10:25;61.42;;;20.02;;